sensor_id;sensor_type;location;lat;lon;timestamp;noise_LAeq;noise_LA_min;noise_LA_max;noise_LA01;noise_LA95
60031;Laerm;45901;47.600;9.890;2023-12-22T00:02:20;41.75;38.81;51.77;;
60031;Laerm;45901;47.600;9.890;2023-12-22T00:04:49;41.55;38.67;51.79;;
60031;Laerm;45901;47.600;9.890;2023-12-22T00:07:16;41.62;38.52;51.14;;
60031;Laerm;45901;47.600;9.890;2023-12-22T00:09:43;41.63;37.88;51.70;;
60031;Laerm;45901;47.600;9.890;2023-12-22T00:12:12;41.75;37.88;53.02;;
60031;Laerm;45901;47.600;9.890;2023-12-22T00:14:39;43.13;39.34;58.45;;
60031;Laerm;45901;47.600;9.890;2023-12-22T00:17:06;42.51;38.37;55.98;;
60031;Laerm;45901;47.600;9.890;2023-12-22T00:19:33;41.27;38.37;45.94;;
60031;Laerm;45901;47.600;9.890;2023-12-22T00:22:01;41.05;38.37;47.54;;
60031;Laerm;45901;47.600;9.890;2023-12-22T00:24:29;41.60;37.88;57.80;;
60031;Laerm;45901;47.600;9.890;2023-12-22T00:26:57;41.59;38.37;48.76;;
60031;Laerm;45901;47.600;9.890;2023-12-22T00:29:25;41.07;37.70;45.20;;
60031;Laerm;45901;47.600;9.890;2023-12-22T00:31:54;42.32;38.52;61.67;;
60031;Laerm;45901;47.600;9.890;2023-12-22T00:34:22;41.24;38.05;53.41;;
60031;Laerm;45901;47.600;9.890;2023-12-22T00:36:49;41.32;37.88;54.65;;
60031;Laerm;45901;47.600;9.890;2023-12-22T00:39:16;40.62;37.88;47.36;;
60031;Laerm;45901;47.600;9.890;2023-12-22T00:41:43;40.87;37.88;45.30;;
60031;Laerm;45901;47.600;9.890;2023-12-22T00:44:11;41.74;37.70;64.29;;
60031;Laerm;45901;47.600;9.890;2023-12-22T00:46:39;43.54;38.21;61.91;;
60031;Laerm;45901;47.600;9.890;2023-12-22T00:49:06;40.92;38.05;45.14;;
60031;Laerm;45901;47.600;9.890;2023-12-22T00:51:33;41.14;38.37;52.42;;
60031;Laerm;45901;47.600;9.890;2023-12-22T00:54:00;42.57;38.37;55.54;;
60031;Laerm;45901;47.600;9.890;2023-12-22T00:56:27;45.69;38.67;62.09;;
60031;Laerm;45901;47.600;9.890;2023-12-22T00:58:54;44.07;39.70;54.78;;
60031;Laerm;45901;47.600;9.890;2023-12-22T01:01:21;43.29;40.33;53.95;;
60031;Laerm;45901;47.600;9.890;2023-12-22T01:03:50;43.25;39.58;55.45;;
60031;Laerm;45901;47.600;9.890;2023-12-22T01:06:17;43.54;39.21;67.28;;
60031;Laerm;45901;47.600;9.890;2023-12-22T01:08:44;42.35;38.95;57.54;;
60031;Laerm;45901;47.600;9.890;2023-12-22T01:11:15;41.69;38.21;46.41;;
60031;Laerm;45901;47.600;9.890;2023-12-22T01:13:43;42.51;39.21;61.29;;
60031;Laerm;45901;47.600;9.890;2023-12-22T01:16:10;42.25;39.34;53.58;;
60031;Laerm;45901;47.600;9.890;2023-12-22T01:18:37;41.94;38.67;59.27;;
60031;Laerm;45901;47.600;9.890;2023-12-22T01:21:09;43.65;38.81;61.63;;
60031;Laerm;45901;47.600;9.890;2023-12-22T01:23:36;41.36;37.70;44.65;;
60031;Laerm;45901;47.600;9.890;2023-12-22T01:26:04;41.61;38.67;56.89;;
60031;Laerm;45901;47.600;9.890;2023-12-22T01:28:31;41.52;37.52;53.51;;
60031;Laerm;45901;47.600;9.890;2023-12-22T01:30:58;41.46;38.21;59.20;;
60031;Laerm;45901;47.600;9.890;2023-12-22T01:33:25;40.80;37.88;43.09;;
60031;Laerm;45901;47.600;9.890;2023-12-22T01:35:52;40.86;37.88;46.87;;
60031;Laerm;45901;47.600;9.890;2023-12-22T01:38:21;41.09;37.52;50.95;;
60031;Laerm;45901;47.600;9.890;2023-12-22T01:40:48;41.30;38.37;57.34;;
60031;Laerm;45901;47.600;9.890;2023-12-22T01:43:15;41.06;37.88;51.59;;
60031;Laerm;45901;47.600;9.890;2023-12-22T01:45:47;41.04;38.05;45.80;;
60031;Laerm;45901;47.600;9.890;2023-12-22T01:48:15;41.09;38.21;48.57;;
60031;Laerm;45901;47.600;9.890;2023-12-22T01:50:42;41.09;38.05;46.10;;
60031;Laerm;45901;47.600;9.890;2023-12-22T01:53:10;40.86;37.70;42.76;;
60031;Laerm;45901;47.600;9.890;2023-12-22T01:55:39;41.14;38.37;52.10;;
60031;Laerm;45901;47.600;9.890;2023-12-22T01:58:06;41.07;38.32;44.31;;
60031;Laerm;45901;47.600;9.890;2023-12-22T02:00:34;41.04;38.52;46.48;;
60031;Laerm;45901;47.600;9.890;2023-12-22T02:03:02;40.99;37.12;44.97;;
60031;Laerm;45901;47.600;9.890;2023-12-22T02:05:29;40.85;37.52;44.11;;
60031;Laerm;45901;47.600;9.890;2023-12-22T02:07:56;40.93;37.70;43.86;;
60031;Laerm;45901;47.600;9.890;2023-12-22T02:10:24;41.19;38.05;43.77;;
60031;Laerm;45901;47.600;9.890;2023-12-22T02:12:53;41.79;38.67;51.79;;
60031;Laerm;45901;47.600;9.890;2023-12-22T02:15:20;41.90;39.46;48.69;;
60031;Laerm;45901;47.600;9.890;2023-12-22T02:17:51;42.01;39.58;48.58;;
60031;Laerm;45901;47.600;9.890;2023-12-22T02:20:22;41.90;38.37;43.49;;
60031;Laerm;45901;47.600;9.890;2023-12-22T02:22:52;41.97;39.08;43.58;;
60031;Laerm;45901;47.600;9.890;2023-12-22T02:25:20;42.16;39.46;48.02;;
60031;Laerm;45901;47.600;9.890;2023-12-22T02:27:49;42.36;39.34;49.58;;
60031;Laerm;45901;47.600;9.890;2023-12-22T02:30:23;42.43;39.81;45.93;;
60031;Laerm;45901;47.600;9.890;2023-12-22T02:32:55;42.41;39.34;45.45;;
60031;Laerm;45901;47.600;9.890;2023-12-22T02:35:26;42.56;39.70;53.16;;
60031;Laerm;45901;47.600;9.890;2023-12-22T02:37:57;42.29;39.21;50.02;;
60031;Laerm;45901;47.600;9.890;2023-12-22T02:40:25;41.87;39.46;49.30;;
60031;Laerm;45901;47.600;9.890;2023-12-22T02:42:53;41.55;39.08;46.05;;
60031;Laerm;45901;47.600;9.890;2023-12-22T02:45:21;41.17;38.05;46.38;;
60031;Laerm;45901;47.600;9.890;2023-12-22T02:47:48;40.85;37.32;45.27;;
60031;Laerm;45901;47.600;9.890;2023-12-22T02:50:16;40.55;37.52;45.36;;
60031;Laerm;45901;47.600;9.890;2023-12-22T02:52:43;40.89;37.70;47.08;;
60031;Laerm;45901;47.600;9.890;2023-12-22T02:55:12;40.15;37.32;42.22;;
60031;Laerm;45901;47.600;9.890;2023-12-22T02:57:39;40.38;37.70;45.80;;
60031;Laerm;45901;47.600;9.890;2023-12-22T03:00:08;40.19;37.53;42.93;;
60031;Laerm;45901;47.600;9.890;2023-12-22T03:02:35;41.50;37.70;52.41;;
60031;Laerm;45901;47.600;9.890;2023-12-22T03:05:03;41.96;37.70;63.34;;
60031;Laerm;45901;47.600;9.890;2023-12-22T03:07:30;40.79;38.05;47.72;;
60031;Laerm;45901;47.600;9.890;2023-12-22T03:09:57;40.78;37.70;46.89;;
60031;Laerm;45901;47.600;9.890;2023-12-22T03:12:26;41.06;37.70;50.70;;
60031;Laerm;45901;47.600;9.890;2023-12-22T03:14:53;40.66;38.05;43.58;;
60031;Laerm;45901;47.600;9.890;2023-12-22T03:17:20;40.84;38.05;45.27;;
60031;Laerm;45901;47.600;9.890;2023-12-22T03:19:48;40.49;37.52;42.47;;
60031;Laerm;45901;47.600;9.890;2023-12-22T03:22:15;40.96;37.88;52.45;;
60031;Laerm;45901;47.600;9.890;2023-12-22T03:24:42;42.19;37.32;62.43;;
60031;Laerm;45901;47.600;9.890;2023-12-22T03:27:09;40.41;37.12;43.34;;
60031;Laerm;45901;47.600;9.890;2023-12-22T03:29:37;40.74;37.88;50.27;;
60031;Laerm;45901;47.600;9.890;2023-12-22T03:32:05;40.30;37.70;46.07;;
60031;Laerm;45901;47.600;9.890;2023-12-22T03:34:32;40.28;37.12;44.15;;
60031;Laerm;45901;47.600;9.890;2023-12-22T03:37:00;40.57;37.70;56.06;;
60031;Laerm;45901;47.600;9.890;2023-12-22T03:39:27;41.07;37.70;56.47;;
60031;Laerm;45901;47.600;9.890;2023-12-22T03:41:54;40.45;37.88;43.77;;
60031;Laerm;45901;47.600;9.890;2023-12-22T03:44:21;40.35;37.32;43.49;;
60031;Laerm;45901;47.600;9.890;2023-12-22T03:46:50;40.89;37.52;47.74;;
60031;Laerm;45901;47.600;9.890;2023-12-22T03:49:17;40.97;38.21;50.60;;
60031;Laerm;45901;47.600;9.890;2023-12-22T03:51:45;40.67;37.70;45.94;;
60031;Laerm;45901;47.600;9.890;2023-12-22T03:54:12;40.74;37.88;48.32;;
60031;Laerm;45901;47.600;9.890;2023-12-22T03:56:41;40.70;37.32;53.27;;
60031;Laerm;45901;47.600;9.890;2023-12-22T03:59:08;40.58;37.52;43.99;;
60031;Laerm;45901;47.600;9.890;2023-12-22T04:01:36;41.11;37.70;50.74;;
60031;Laerm;45901;47.600;9.890;2023-12-22T04:04:05;40.98;37.52;52.21;;
60031;Laerm;45901;47.600;9.890;2023-12-22T04:06:39;40.79;37.32;47.44;;
60031;Laerm;45901;47.600;9.890;2023-12-22T04:09:06;42.00;37.88;59.89;;
60031;Laerm;45901;47.600;9.890;2023-12-22T04:11:33;40.69;37.87;52.13;;
60031;Laerm;45901;47.600;9.890;2023-12-22T04:14:02;40.02;35.94;49.83;;
60031;Laerm;45901;47.600;9.890;2023-12-22T04:16:30;40.07;37.12;52.61;;
60031;Laerm;45901;47.600;9.890;2023-12-22T04:18:57;40.12;36.91;51.62;;
60031;Laerm;45901;47.600;9.890;2023-12-22T04:21:26;41.12;37.70;54.12;;
60031;Laerm;45901;47.600;9.890;2023-12-22T04:23:53;40.18;37.32;51.24;;
60031;Laerm;45901;47.600;9.890;2023-12-22T04:26:20;39.83;36.91;50.68;;
60031;Laerm;45901;47.600;9.890;2023-12-22T04:28:47;40.13;37.52;54.48;;
60031;Laerm;45901;47.600;9.890;2023-12-22T04:31:15;40.22;36.91;44.39;;
60031;Laerm;45901;47.600;9.890;2023-12-22T04:33:43;40.49;37.70;44.47;;
60031;Laerm;45901;47.600;9.890;2023-12-22T04:36:10;40.17;37.12;42.41;;
60031;Laerm;45901;47.600;9.890;2023-12-22T04:38:38;40.35;37.32;42.29;;
60031;Laerm;45901;47.600;9.890;2023-12-22T04:41:07;40.63;38.05;43.39;;
60031;Laerm;45901;47.600;9.890;2023-12-22T04:43:34;41.13;38.52;55.53;;
60031;Laerm;45901;47.600;9.890;2023-12-22T04:46:01;42.04;38.67;48.66;;
60031;Laerm;45901;47.600;9.890;2023-12-22T04:48:28;42.22;39.81;48.23;;
60031;Laerm;45901;47.600;9.890;2023-12-22T04:50:55;41.73;39.34;44.07;;
60031;Laerm;45901;47.600;9.890;2023-12-22T04:53:22;41.63;39.08;47.79;;
60031;Laerm;45901;47.600;9.890;2023-12-22T04:55:51;42.04;39.21;52.83;;
60031;Laerm;45901;47.600;9.890;2023-12-22T04:58:18;41.68;39.21;50.07;;
60031;Laerm;45901;47.600;9.890;2023-12-22T05:00:45;41.69;38.81;45.77;;
60031;Laerm;45901;47.600;9.890;2023-12-22T05:03:13;41.80;38.95;50.71;;
60031;Laerm;45901;47.600;9.890;2023-12-22T05:05:40;41.23;38.81;43.68;;
60031;Laerm;45901;47.600;9.890;2023-12-22T05:08:07;40.96;38.37;43.72;;
60031;Laerm;45901;47.600;9.890;2023-12-22T05:10:34;40.86;38.37;43.68;;
60031;Laerm;45901;47.600;9.890;2023-12-22T05:13:03;40.74;37.88;43.54;;
60031;Laerm;45901;47.600;9.890;2023-12-22T05:15:31;40.72;37.70;45.07;;
60031;Laerm;45901;47.600;9.890;2023-12-22T05:17:58;40.73;37.70;43.90;;
60031;Laerm;45901;47.600;9.890;2023-12-22T05:20:25;40.37;37.88;42.53;;
60031;Laerm;45901;47.600;9.890;2023-12-22T05:22:53;40.27;37.70;46.10;;
60031;Laerm;45901;47.600;9.890;2023-12-22T05:25:20;40.83;37.70;48.37;;
60031;Laerm;45901;47.600;9.890;2023-12-22T05:27:47;41.70;37.88;54.56;;
60031;Laerm;45901;47.600;9.890;2023-12-22T05:30:16;40.88;38.47;47.70;;
60031;Laerm;45901;47.600;9.890;2023-12-22T05:32:43;41.02;38.52;45.83;;
60031;Laerm;45901;47.600;9.890;2023-12-22T05:35:11;41.05;38.37;45.39;;
60031;Laerm;45901;47.600;9.890;2023-12-22T05:37:38;40.83;38.21;43.80;;
60031;Laerm;45901;47.600;9.890;2023-12-22T05:40:07;40.91;37.88;43.39;;
60031;Laerm;45901;47.600;9.890;2023-12-22T05:42:35;41.06;38.05;53.89;;
60031;Laerm;45901;47.600;9.890;2023-12-22T05:45:03;42.05;38.37;60.05;;
60031;Laerm;45901;47.600;9.890;2023-12-22T05:47:33;42.13;38.67;56.13;;
60031;Laerm;45901;47.600;9.890;2023-12-22T05:50:01;41.56;38.37;53.94;;
60031;Laerm;45901;47.600;9.890;2023-12-22T05:52:28;41.19;38.37;50.20;;
60031;Laerm;45901;47.600;9.890;2023-12-22T05:54:55;41.04;38.37;43.19;;
60031;Laerm;45901;47.600;9.890;2023-12-22T05:57:25;41.00;38.37;43.34;;
60031;Laerm;45901;47.600;9.890;2023-12-22T05:59:52;41.07;38.21;44.07;;
60031;Laerm;45901;47.600;9.890;2023-12-22T06:02:19;41.23;38.52;46.91;;
60031;Laerm;45901;47.600;9.890;2023-12-22T06:04:48;41.20;37.70;58.42;;
60031;Laerm;45901;47.600;9.890;2023-12-22T06:07:15;40.99;38.21;54.46;;
60031;Laerm;45901;47.600;9.890;2023-12-22T06:09:42;41.13;37.70;49.40;;
60031;Laerm;45901;47.600;9.890;2023-12-22T06:12:10;40.76;37.88;50.21;;
60031;Laerm;45901;47.600;9.890;2023-12-22T06:14:37;40.54;36.91;52.44;;
60031;Laerm;45901;47.600;9.890;2023-12-22T06:17:05;40.48;37.12;45.57;;
60031;Laerm;45901;47.600;9.890;2023-12-22T06:19:32;40.32;37.32;44.73;;
60031;Laerm;45901;47.600;9.890;2023-12-22T06:22:00;40.65;37.88;46.57;;
60031;Laerm;45901;47.600;9.890;2023-12-22T06:24:28;40.46;38.05;44.83;;
60031;Laerm;45901;47.600;9.890;2023-12-22T06:26:55;40.38;37.52;44.19;;
60031;Laerm;45901;47.600;9.890;2023-12-22T06:29:22;41.03;38.05;48.95;;
60031;Laerm;45901;47.600;9.890;2023-12-22T06:31:49;41.34;37.70;52.74;;
60031;Laerm;45901;47.600;9.890;2023-12-22T06:34:17;40.69;37.70;45.04;;
60031;Laerm;45901;47.600;9.890;2023-12-22T06:36:44;40.85;37.52;54.97;;
60031;Laerm;45901;47.600;9.890;2023-12-22T06:39:13;41.14;37.70;50.82;;
60031;Laerm;45901;47.600;9.890;2023-12-22T06:41:40;42.35;38.05;61.25;;
60031;Laerm;45901;47.600;9.890;2023-12-22T06:44:07;40.95;38.05;46.82;;
60031;Laerm;45901;47.600;9.890;2023-12-22T06:46:36;42.02;38.21;56.97;;
60031;Laerm;45901;47.600;9.890;2023-12-22T06:49:03;40.82;37.70;46.80;;
60031;Laerm;45901;47.600;9.890;2023-12-22T06:51:32;40.76;37.70;49.18;;
60031;Laerm;45901;47.600;9.890;2023-12-22T06:54:01;41.05;37.88;52.55;;
60031;Laerm;45901;47.600;9.890;2023-12-22T06:56:33;40.76;37.88;43.68;;
60031;Laerm;45901;47.600;9.890;2023-12-22T06:59:00;41.48;37.70;51.74;;
60031;Laerm;45901;47.600;9.890;2023-12-22T07:01:30;41.00;38.05;48.42;;
60031;Laerm;45901;47.600;9.890;2023-12-22T07:03:58;40.46;37.70;46.30;;
60031;Laerm;45901;47.600;9.890;2023-12-22T07:06:29;41.39;37.88;53.05;;
60031;Laerm;45901;47.600;9.890;2023-12-22T07:09:27;41.24;38.18;62.31;;
60031;Laerm;45901;47.600;9.890;2023-12-22T07:11:56;41.43;37.52;59.05;;
60031;Laerm;45901;47.600;9.890;2023-12-22T07:14:24;40.83;37.88;46.71;;
60031;Laerm;45901;47.600;9.890;2023-12-22T07:16:51;41.15;37.70;53.13;;
60031;Laerm;45901;47.600;9.890;2023-12-22T07:19:18;40.92;38.05;49.47;;
60031;Laerm;45901;47.600;9.890;2023-12-22T07:21:45;40.24;37.52;48.07;;
60031;Laerm;45901;47.600;9.890;2023-12-22T07:24:13;41.50;38.21;56.12;;
60031;Laerm;45901;47.600;9.890;2023-12-22T07:26:41;40.65;37.52;44.51;;
60031;Laerm;45901;47.600;9.890;2023-12-22T07:29:11;40.74;37.88;48.95;;
60031;Laerm;45901;47.600;9.890;2023-12-22T07:31:38;40.75;37.12;47.74;;
60031;Laerm;45901;47.600;9.890;2023-12-22T07:34:05;40.56;38.05;51.80;;
60031;Laerm;45901;47.600;9.890;2023-12-22T07:36:33;40.66;37.32;51.47;;
60031;Laerm;45901;47.600;9.890;2023-12-22T07:39:00;41.71;37.88;57.67;;
60031;Laerm;45901;47.600;9.890;2023-12-22T07:41:27;41.36;37.70;52.21;;
60031;Laerm;45901;47.600;9.890;2023-12-22T07:43:54;40.83;37.70;50.70;;
60031;Laerm;45901;47.600;9.890;2023-12-22T07:46:23;42.02;38.37;56.55;;
60031;Laerm;45901;47.600;9.890;2023-12-22T07:48:50;40.98;37.70;52.30;;
60031;Laerm;45901;47.600;9.890;2023-12-22T07:51:17;40.87;38.18;50.25;;
60031;Laerm;45901;47.600;9.890;2023-12-22T07:53:44;40.54;37.52;47.96;;
60031;Laerm;45901;47.600;9.890;2023-12-22T07:56:12;40.77;37.88;52.02;;
60031;Laerm;45901;47.600;9.890;2023-12-22T07:58:39;40.65;36.91;50.17;;
60031;Laerm;45901;47.600;9.890;2023-12-22T08:01:06;41.16;38.05;49.90;;
60031;Laerm;45901;47.600;9.890;2023-12-22T08:03:35;41.02;38.05;54.58;;
60031;Laerm;45901;47.600;9.890;2023-12-22T08:06:06;43.75;37.52;62.83;;
60031;Laerm;45901;47.600;9.890;2023-12-22T08:08:34;41.45;37.70;57.60;;
60031;Laerm;45901;47.600;9.890;2023-12-22T08:11:01;40.37;37.88;47.36;;
60031;Laerm;45901;47.600;9.890;2023-12-22T08:13:28;41.05;38.05;49.43;;
60031;Laerm;45901;47.600;9.890;2023-12-22T08:15:55;41.34;37.53;55.95;;
60031;Laerm;45901;47.600;9.890;2023-12-22T08:18:23;41.07;37.52;59.03;;
60031;Laerm;45901;47.600;9.890;2023-12-22T08:20:51;41.21;38.05;54.41;;
60031;Laerm;45901;47.600;9.890;2023-12-22T08:23:18;42.53;38.52;67.50;;
60031;Laerm;45901;47.600;9.890;2023-12-22T08:25:47;41.27;37.32;58.12;;
60031;Laerm;45901;47.600;9.890;2023-12-22T08:28:15;41.35;37.32;58.95;;
60031;Laerm;45901;47.600;9.890;2023-12-22T08:30:42;41.45;38.05;56.13;;
60031;Laerm;45901;47.600;9.890;2023-12-22T08:33:09;41.20;37.70;53.52;;
60031;Laerm;45901;47.600;9.890;2023-12-22T08:35:37;40.99;38.21;50.00;;
60031;Laerm;45901;47.600;9.890;2023-12-22T08:38:05;40.72;38.05;44.19;;
60031;Laerm;45901;47.600;9.890;2023-12-22T08:40:33;42.44;38.37;60.99;;
60031;Laerm;45901;47.600;9.890;2023-12-22T08:43:01;43.36;37.32;60.73;;
60031;Laerm;45901;47.600;9.890;2023-12-22T08:45:29;41.15;36.20;54.05;;
60031;Laerm;45901;47.600;9.890;2023-12-22T08:47:56;41.41;37.52;49.59;;
60031;Laerm;45901;47.600;9.890;2023-12-22T08:50:23;41.28;38.02;54.16;;
60031;Laerm;45901;47.600;9.890;2023-12-22T08:52:51;41.39;37.88;52.69;;
60031;Laerm;45901;47.600;9.890;2023-12-22T08:55:20;41.46;37.12;50.31;;
60031;Laerm;45901;47.600;9.890;2023-12-22T08:57:47;41.13;38.05;54.27;;
60031;Laerm;45901;47.600;9.890;2023-12-22T09:00:15;40.48;37.88;43.58;;
60031;Laerm;45901;47.600;9.890;2023-12-22T09:02:42;41.70;37.88;52.00;;
60031;Laerm;45901;47.600;9.890;2023-12-22T09:05:10;41.01;38.21;51.41;;
60031;Laerm;45901;47.600;9.890;2023-12-22T09:07:37;41.53;38.21;49.71;;
60031;Laerm;45901;47.600;9.890;2023-12-22T09:10:06;40.92;37.70;52.66;;
60031;Laerm;45901;47.600;9.890;2023-12-22T09:12:34;41.02;37.70;47.24;;
60031;Laerm;45901;47.600;9.890;2023-12-22T09:15:02;40.85;37.70;52.92;;
60031;Laerm;45901;47.600;9.890;2023-12-22T09:17:30;41.33;37.88;51.82;;
60031;Laerm;45901;47.600;9.890;2023-12-22T09:19:58;41.39;38.18;57.29;;
60031;Laerm;45901;47.600;9.890;2023-12-22T09:22:25;40.98;37.52;53.82;;
60031;Laerm;45901;47.600;9.890;2023-12-22T09:24:52;40.95;37.70;49.91;;
60031;Laerm;45901;47.600;9.890;2023-12-22T09:27:20;41.57;38.05;57.76;;
60031;Laerm;45901;47.600;9.890;2023-12-22T09:29:48;40.88;37.88;47.04;;
60031;Laerm;45901;47.600;9.890;2023-12-22T09:32:16;40.89;37.12;58.70;;
60031;Laerm;45901;47.600;9.890;2023-12-22T09:34:44;40.77;37.70;46.97;;
60031;Laerm;45901;47.600;9.890;2023-12-22T09:37:11;41.21;37.88;49.89;;
60031;Laerm;45901;47.600;9.890;2023-12-22T09:39:38;41.87;37.52;55.64;;
60031;Laerm;45901;47.600;9.890;2023-12-22T09:42:06;43.14;37.32;66.01;;
60031;Laerm;45901;47.600;9.890;2023-12-22T09:44:33;41.59;37.88;54.02;;
60031;Laerm;45901;47.600;9.890;2023-12-22T09:47:04;41.04;37.52;47.81;;
60031;Laerm;45901;47.600;9.890;2023-12-22T09:49:33;40.73;38.05;45.54;;
60031;Laerm;45901;47.600;9.890;2023-12-22T09:52:02;40.90;37.70;46.80;;
60031;Laerm;45901;47.600;9.890;2023-12-22T09:54:31;40.68;37.88;48.77;;
60031;Laerm;45901;47.600;9.890;2023-12-22T09:56:59;41.02;38.05;53.03;;
60031;Laerm;45901;47.600;9.890;2023-12-22T09:59:27;41.62;38.52;51.82;;
60031;Laerm;45901;47.600;9.890;2023-12-22T10:01:55;42.53;38.37;59.32;;
60031;Laerm;45901;47.600;9.890;2023-12-22T10:04:25;42.16;37.52;61.83;;
60031;Laerm;45901;47.600;9.890;2023-12-22T10:06:54;41.09;37.88;52.63;;
60031;Laerm;45901;47.600;9.890;2023-12-22T10:09:26;41.09;37.88;56.05;;
60031;Laerm;45901;47.600;9.890;2023-12-22T10:11:54;41.21;38.05;51.53;;
60031;Laerm;45901;47.600;9.890;2023-12-22T10:14:22;40.81;37.88;53.64;;
60031;Laerm;45901;47.600;9.890;2023-12-22T10:16:50;41.56;37.70;50.83;;
60031;Laerm;45901;47.600;9.890;2023-12-22T10:19:19;41.25;37.70;56.08;;
60031;Laerm;45901;47.600;9.890;2023-12-22T10:21:48;41.75;37.70;58.50;;
60031;Laerm;45901;47.600;9.890;2023-12-22T10:24:39;40.65;37.12;47.02;;
60031;Laerm;45901;47.600;9.890;2023-12-22T10:27:08;40.46;37.70;46.55;;
60031;Laerm;45901;47.600;9.890;2023-12-22T10:29:36;41.28;38.21;49.53;;
60031;Laerm;45901;47.600;9.890;2023-12-22T10:32:05;40.90;38.21;48.36;;
60031;Laerm;45901;47.600;9.890;2023-12-22T10:34:33;40.81;37.70;54.83;;
60031;Laerm;45901;47.600;9.890;2023-12-22T10:37:02;41.12;38.05;53.69;;
60031;Laerm;45901;47.600;9.890;2023-12-22T10:39:30;40.65;37.88;45.86;;
60031;Laerm;45901;47.600;9.890;2023-12-22T10:41:58;40.47;36.69;49.02;;
60031;Laerm;45901;47.600;9.890;2023-12-22T10:44:26;40.35;37.32;43.94;;
60031;Laerm;45901;47.600;9.890;2023-12-22T10:46:54;41.30;37.32;50.78;;
60031;Laerm;45901;47.600;9.890;2023-12-22T10:49:22;41.55;37.70;52.88;;
60031;Laerm;45901;47.600;9.890;2023-12-22T10:51:51;40.62;37.88;48.48;;
60031;Laerm;45901;47.600;9.890;2023-12-22T10:54:20;41.26;37.52;56.75;;
60031;Laerm;45901;47.600;9.890;2023-12-22T10:56:47;40.59;37.88;52.20;;
60031;Laerm;45901;47.600;9.890;2023-12-22T10:59:18;41.16;38.21;48.91;;
60031;Laerm;45901;47.600;9.890;2023-12-22T11:01:45;41.26;37.32;48.60;;
60031;Laerm;45901;47.600;9.890;2023-12-22T11:04:18;41.79;38.37;50.12;;
60031;Laerm;45901;47.600;9.890;2023-12-22T11:06:50;41.25;38.05;51.00;;
60031;Laerm;45901;47.600;9.890;2023-12-22T11:09:22;42.01;38.21;54.53;;
60031;Laerm;45901;47.600;9.890;2023-12-22T11:11:51;42.57;38.21;64.32;;
60031;Laerm;45901;47.600;9.890;2023-12-22T11:14:19;41.01;38.37;53.75;;
60031;Laerm;45901;47.600;9.890;2023-12-22T11:16:47;41.52;37.88;51.95;;
60031;Laerm;45901;47.600;9.890;2023-12-22T11:19:16;40.96;37.88;53.59;;
60031;Laerm;45901;47.600;9.890;2023-12-22T11:21:45;40.58;37.88;46.48;;
60031;Laerm;45901;47.600;9.890;2023-12-22T11:24:14;40.56;38.05;44.65;;
60031;Laerm;45901;47.600;9.890;2023-12-22T11:26:43;40.69;37.52;47.38;;
60031;Laerm;45901;47.600;9.890;2023-12-22T11:29:14;41.45;38.52;50.37;;
60031;Laerm;45901;47.600;9.890;2023-12-22T11:31:45;41.20;38.05;49.24;;
60031;Laerm;45901;47.600;9.890;2023-12-22T11:34:15;41.00;37.70;53.14;;
60031;Laerm;45901;47.600;9.890;2023-12-22T11:36:45;41.06;38.05;48.16;;
60031;Laerm;45901;47.600;9.890;2023-12-22T11:39:14;40.66;37.87;47.82;;
60031;Laerm;45901;47.600;9.890;2023-12-22T11:41:43;41.91;38.21;53.57;;
60031;Laerm;45901;47.600;9.890;2023-12-22T11:44:11;41.85;38.37;54.78;;
60031;Laerm;45901;47.600;9.890;2023-12-22T11:46:39;41.23;39.08;47.70;;
60031;Laerm;45901;47.600;9.890;2023-12-22T11:49:06;41.23;38.81;50.43;;
60031;Laerm;45901;47.600;9.890;2023-12-22T11:51:34;41.69;39.08;48.12;;
60031;Laerm;45901;47.600;9.890;2023-12-22T11:54:01;41.28;38.95;50.28;;
60031;Laerm;45901;47.600;9.890;2023-12-22T11:56:29;41.20;38.52;48.54;;
60031;Laerm;45901;47.600;9.890;2023-12-22T11:58:58;41.37;38.52;47.38;;
60031;Laerm;45901;47.600;9.890;2023-12-22T12:01:27;42.04;38.95;51.76;;
60031;Laerm;45901;47.600;9.890;2023-12-22T12:03:58;42.50;39.70;56.34;;
60031;Laerm;45901;47.600;9.890;2023-12-22T12:06:34;42.41;39.46;51.56;;
60031;Laerm;45901;47.600;9.890;2023-12-22T12:09:05;42.23;39.34;54.60;;
60031;Laerm;45901;47.600;9.890;2023-12-22T12:12:11;42.58;39.46;50.29;;
60031;Laerm;45901;47.600;9.890;2023-12-22T12:14:43;43.05;38.95;55.03;;
60031;Laerm;45901;47.600;9.890;2023-12-22T12:17:15;43.01;39.70;48.43;;
60031;Laerm;45901;47.600;9.890;2023-12-22T12:19:47;42.59;39.21;49.32;;
60031;Laerm;45901;47.600;9.890;2023-12-22T12:22:15;42.26;39.58;46.97;;
60031;Laerm;45901;47.600;9.890;2023-12-22T12:24:42;42.18;39.46;50.20;;
60031;Laerm;45901;47.600;9.890;2023-12-22T12:27:09;42.05;39.70;47.88;;
60031;Laerm;45901;47.600;9.890;2023-12-22T12:29:37;41.77;39.21;51.47;;
60031;Laerm;45901;47.600;9.890;2023-12-22T12:32:07;42.44;39.58;56.03;;
60031;Laerm;45901;47.600;9.890;2023-12-22T12:34:36;41.47;39.08;49.14;;
60031;Laerm;45901;47.600;9.890;2023-12-22T12:37:04;43.38;39.34;57.37;;
60031;Laerm;45901;47.600;9.890;2023-12-22T12:39:34;42.26;39.34;55.24;;
60031;Laerm;45901;47.600;9.890;2023-12-22T12:42:02;42.51;40.43;48.18;;
60031;Laerm;45901;47.600;9.890;2023-12-22T12:44:34;42.88;40.23;49.14;;
60031;Laerm;45901;47.600;9.890;2023-12-22T12:47:14;42.25;40.13;47.68;;
60031;Laerm;45901;47.600;9.890;2023-12-22T12:49:41;42.71;40.33;47.79;;
60031;Laerm;45901;47.600;9.890;2023-12-22T12:52:13;42.26;39.46;48.61;;
60031;Laerm;45901;47.600;9.890;2023-12-22T12:54:40;42.75;40.71;51.37;;
60031;Laerm;45901;47.600;9.890;2023-12-22T12:57:09;43.45;40.43;52.72;;
60031;Laerm;45901;47.600;9.890;2023-12-22T12:59:45;43.11;40.33;49.33;;
60031;Laerm;45901;47.600;9.890;2023-12-22T13:02:15;43.55;40.53;49.21;;
60031;Laerm;45901;47.600;9.890;2023-12-22T13:04:43;43.49;40.89;49.11;;
60031;Laerm;45901;47.600;9.890;2023-12-22T13:07:10;43.53;40.80;53.11;;
60031;Laerm;45901;47.600;9.890;2023-12-22T13:09:39;43.82;40.80;53.79;;
60031;Laerm;45901;47.600;9.890;2023-12-22T13:12:07;43.62;40.71;53.85;;
60031;Laerm;45901;47.600;9.890;2023-12-22T13:14:35;43.76;40.80;50.75;;
60031;Laerm;45901;47.600;9.890;2023-12-22T13:17:03;43.36;40.98;51.26;;
60031;Laerm;45901;47.600;9.890;2023-12-22T13:19:33;42.80;39.92;46.91;;
60031;Laerm;45901;47.600;9.890;2023-12-22T13:22:00;42.73;40.23;48.52;;
60031;Laerm;45901;47.600;9.890;2023-12-22T13:24:27;44.06;40.62;56.01;;
60031;Laerm;45901;47.600;9.890;2023-12-22T13:27:02;43.26;40.62;49.03;;
60031;Laerm;45901;47.600;9.890;2023-12-22T13:29:42;43.81;40.98;51.72;;
60031;Laerm;45901;47.600;9.890;2023-12-22T13:32:16;44.25;40.98;50.58;;
60031;Laerm;45901;47.600;9.890;2023-12-22T13:34:54;43.70;41.19;49.16;;
60031;Laerm;45901;47.600;9.890;2023-12-22T13:37:23;43.25;40.89;48.70;;
60031;Laerm;45901;47.600;9.890;2023-12-22T13:39:52;43.46;40.98;49.66;;
60031;Laerm;45901;47.600;9.890;2023-12-22T13:42:20;44.10;41.22;51.85;;
60031;Laerm;45901;47.600;9.890;2023-12-22T13:44:48;43.57;40.71;52.24;;
60031;Laerm;45901;47.600;9.890;2023-12-22T13:47:16;43.26;40.03;48.58;;
60031;Laerm;45901;47.600;9.890;2023-12-22T13:49:44;42.50;39.70;47.14;;
60031;Laerm;45901;47.600;9.890;2023-12-22T13:52:29;42.97;40.80;51.50;;